Time;durP1;ratioP1;P1;durP2;ratioP2;P2;SDS_P1;SDS_P2;PMS_P1;PMS_P2;Temp;Humidity;BMP_temperature;BMP_pressure;BME280_temperature;BME280_humidity;BME280_pressure;Samples;Min_cycle;Max_cycle;Signal;HPM_P1;HPM_P2
2023/05/27 00:02:02;;;;;;;12.77;6.25;;;;;;;9.54;80.72;102163.41;6086785;23;20022;-69
2023/05/27 00:04:29;;;;;;;10.10;5.22;;;;;;;9.49;81.03;102154.78;6088397;23;20050;-70
2023/05/27 00:06:56;;;;;;;14.68;5.65;;;;;;;9.48;81.19;102153.09;6090949;23;20769;-71
2023/05/27 00:09:22;;;;;;;4.53;4.28;;;;;;;9.41;81.71;102161.97;6077759;23;20525;-70
2023/05/27 00:11:49;;;;;;;5.57;5.07;;;;;;;9.17;81.86;102118.88;6117191;23;20038;-70
2023/05/27 00:14:49;;;;;;;;;;;;;;;;;;;;;
2023/05/27 00:17:42;;;;;;;11.38;4.88;;;;;;;9.36;81.59;102133.28;6084920;23;20033;-71
2023/05/27 00:20:10;;;;;;;19.33;6.20;;;;;;;9.21;82.63;102112.66;6069874;23;20722;-70
2023/05/27 00:22:41;;;;;;;13.05;4.95;;;;;;;9.42;82.66;102162.84;6113753;23;20006;-70
2023/05/27 00:25:08;;;;;;;7.95;5.47;;;;;;;9.35;83.17;102164.75;6076648;23;20097;-70
2023/05/27 00:27:35;;;;;;;5.47;5.07;;;;;;;9.28;83.63;102157.91;6086697;23;20028;-69
2023/05/27 00:30:02;;;;;;;9.63;5.50;;;;;;;8.93;84.29;102117.69;6113798;23;20757;-69
2023/05/27 00:32:29;;;;;;;13.15;6.00;;;;;;;9.29;83.83;102167.50;6089811;23;20088;-68
2023/05/27 00:34:55;;;;;;;8.27;5.30;;;;;;;8.99;84.42;102113.16;6113393;23;20085;-70
2023/05/27 00:37:22;;;;;;;9.85;6.38;;;;;;;9.21;85.22;102164.22;6118667;23;20261;-70
2023/05/27 00:39:48;;;;;;;12.60;5.70;;;;;;;9.16;85.36;102153.81;6121598;23;20041;-69
2023/05/27 00:42:15;;;;;;;5.53;5.05;;;;;;;9.08;85.78;102148.78;6120828;23;20037;-70
2023/05/27 00:44:42;;;;;;;6.07;5.57;;;;;;;9.06;86.64;102154.91;6087683;23;20028;-70
2023/05/27 00:47:08;;;;;;;8.95;5.68;;;;;;;8.50;86.66;102066.28;6118398;23;20655;-70
2023/05/27 00:49:35;;;;;;;5.63;4.82;;;;;;;9.07;87.12;102157.50;6112435;23;20241;-70
2023/05/27 00:52:02;;;;;;;9.05;4.97;;;;;;;9.05;86.95;102161.94;6093136;23;20028;-70
2023/05/27 00:54:31;;;;;;;6.05;5.00;;;;;;;8.89;86.65;102137.84;6119199;23;20028;-70
2023/05/27 00:56:57;;;;;;;6.60;5.28;;;;;;;8.97;87.21;102169.09;6089048;23;20032;-71
2023/05/27 00:59:24;;;;;;;5.35;4.95;;;;;;;8.96;87.47;102165.63;6087388;23;20036;-70
2023/05/27 01:01:51;;;;;;;17.58;5.68;;;;;;;8.93;87.68;102159.59;6096256;23;20635;-70
2023/05/27 01:04:18;;;;;;;12.88;5.97;;;;;;;8.90;88.18;102159.63;6115613;23;20269;-70
2023/05/27 01:07:02;;;;;;;9.27;5.45;;;;;;;8.84;88.38;102159.78;6103608;23;20040;-70
2023/05/27 01:09:50;;;;;;;4.65;4.35;;;;;;;8.61;88.07;102127.09;6121283;23;20148;-71
2023/05/27 01:12:47;;;;;;;5.85;5.25;;;;;;;8.76;88.79;102152.97;6098579;23;20025;-70
2023/05/27 01:15:23;;;;;;;5.43;5.03;;;;;;;8.75;89.28;102155.59;6118672;23;20027;-71
2023/05/27 01:18:12;;;;;;;5.85;4.78;;;;;;;8.69;88.88;102156.59;6115962;23;20026;-70
2023/05/27 01:20:40;;;;;;;6.00;5.28;;;;;;;8.66;89.38;102148.81;6112640;23;20346;-72
2023/05/27 01:23:08;;;;;;;12.43;6.32;;;;;;;8.46;89.81;102127.41;6093321;23;20195;-70
2023/05/27 01:25:35;;;;;;;6.50;5.38;;;;;;;8.06;89.87;102065.41;6117225;23;20021;-70
2023/05/27 01:28:01;;;;;;;10.82;5.30;;;;;;;8.22;90.97;102093.00;6091148;23;20026;-70
2023/05/27 01:30:28;;;;;;;9.30;5.72;;;;;;;7.98;91.19;102068.19;6082914;23;20035;-70
2023/05/27 01:33:01;;;;;;;5.22;4.90;;;;;;;8.44;91.85;102137.03;6096985;23;20036;-69
2023/05/27 01:35:31;;;;;;;5.00;4.57;;;;;;;8.44;91.96;102137.94;6111927;23;20112;-69
2023/05/27 01:38:05;;;;;;;23.33;5.43;;;;;;;8.39;92.73;102130.13;6120869;23;20095;-71
2023/05/27 01:40:33;;;;;;;4.57;4.20;;;;;;;8.38;93.01;102140.63;6106029;23;20444;-71
2023/05/27 01:43:00;;;;;;;6.72;5.55;;;;;;;8.41;93.92;102139.69;6099132;23;20026;-70
2023/05/27 01:45:26;;;;;;;5.85;5.35;;;;;;;8.36;94.15;102137.19;6117965;23;20083;-70
2023/05/27 01:47:53;;;;;;;12.85;4.80;;;;;;;8.34;94.27;102139.81;6091246;23;20020;-70
2023/05/27 01:50:19;;;;;;;4.20;4.00;;;;;;;8.34;95.07;102137.22;6117300;23;20026;-71
2023/05/27 01:52:46;;;;;;;14.88;5.47;;;;;;;8.29;94.08;102136.44;6092674;23;20028;-70
2023/05/27 01:55:12;;;;;;;9.63;4.82;;;;;;;6.97;94.93;101930.69;6090175;23;20519;-70
2023/05/27 01:57:39;;;;;;;5.10;4.63;;;;;;;7.89;94.77;102082.28;6120272;23;20034;-70
2023/05/27 02:00:09;;;;;;;11.07;6.00;;;;;;;8.10;95.11;102132.47;6116632;23;20073;-70
2023/05/27 02:02:36;;;;;;;10.45;4.53;;;;;;;7.81;95.38;102081.56;6114270;23;20033;-70
2023/05/27 02:05:03;;;;;;;5.65;5.32;;;;;;;7.50;95.99;102037.72;6093339;23;20677;-70
2023/05/27 02:07:29;;;;;;;5.95;5.05;;;;;;;7.73;96.35;102105.22;6119856;23;20024;-72
2023/05/27 02:09:56;;;;;;;5.07;4.65;;;;;;;7.34;96.58;102041.47;6096757;23;20030;-72
2023/05/27 02:12:22;;;;;;;11.93;5.03;;;;;;;7.75;97.45;102100.81;6119619;23;20665;-69
2023/05/27 02:14:49;;;;;;;9.05;5.20;;;;;;;7.86;98.63;102128.50;6097154;23;20026;-70
2023/05/27 02:17:16;;;;;;;5.68;5.22;;;;;;;7.85;98.99;102142.47;6111679;23;20037;-70
2023/05/27 02:19:45;;;;;;;5.88;5.43;;;;;;;7.78;98.41;102145.22;6087567;23;20039;-70
2023/05/27 02:22:15;;;;;;;6.03;4.50;;;;;;;7.72;100.00;102144.47;6083790;23;20018;-71
2023/05/27 02:24:48;;;;;;;9.50;4.93;;;;;;;7.67;100.00;102148.88;6115715;23;20013;-70
2023/05/27 02:27:19;;;;;;;5.25;4.72;;;;;;;7.69;100.00;102149.72;6093465;23;20032;-70
2023/05/27 02:29:45;;;;;;;5.40;4.72;;;;;;;7.68;100.00;102148.00;6121164;23;20033;-69
2023/05/27 02:32:33;;;;;;;5.40;5.10;;;;;;;7.27;100.00;102090.31;6093016;23;20496;-70
2023/05/27 02:35:00;;;;;;;16.10;6.03;;;;;;;7.64;100.00;102154.16;6091579;23;20029;-69
2023/05/27 02:37:27;;;;;;;5.00;4.25;;;;;;;7.53;100.00;102155.19;6111204;23;20096;-70
2023/05/27 02:39:55;;;;;;;5.70;4.70;;;;;;;7.46;100.00;102147.50;6076866;23;20041;-70
2023/05/27 02:42:21;;;;;;;19.50;4.47;;;;;;;6.81;100.00;102061.44;6091941;23;20037;-69
2023/05/27 02:44:48;;;;;;;15.95;5.97;;;;;;;7.26;100.00;102148.66;6123338;23;20690;-70
2023/05/27 02:47:14;;;;;;;5.43;5.00;;;;;;;7.23;100.00;102148.69;6120942;23;20028;-70
2023/05/27 02:49:43;;;;;;;5.22;4.82;;;;;;;7.17;100.00;102162.69;6102923;23;20589;-69
2023/05/27 02:52:09;;;;;;;4.63;4.28;;;;;;;6.86;100.00;102117.91;6093007;23;20021;-69
2023/05/27 02:54:36;;;;;;;9.02;4.90;;;;;;;7.05;100.00;102162.88;6092749;23;20029;-69
2023/05/27 02:57:02;;;;;;;5.28;4.78;;;;;;;6.99;100.00;102168.19;6118191;23;20444;-69
2023/05/27 02:59:29;;;;;;;4.45;4.15;;;;;;;6.52;100.00;102087.06;6122213;23;20036;-69
2023/05/27 03:01:55;;;;;;;7.07;5.07;;;;;;;6.87;100.00;102155.31;6112604;23;20017;-70
2023/05/27 03:04:25;;;;;;;13.02;4.90;;;;;;;6.61;100.00;102117.38;6106799;23;20045;-70
2023/05/27 03:06:51;;;;;;;10.45;5.05;;;;;;;6.93;100.00;102170.88;6117758;23;20496;-72
2023/05/27 03:09:18;;;;;;;4.75;4.32;;;;;;;6.72;100.00;102143.34;6091726;23;20020;-70
2023/05/27 03:11:44;;;;;;;13.05;4.90;;;;;;;6.92;100.00;102174.38;6114306;23;20443;-70
2023/05/27 03:14:11;;;;;;;6.00;5.47;;;;;;;6.79;100.00;102158.91;6121825;23;20048;-70
2023/05/27 03:16:37;;;;;;;9.05;5.43;;;;;;;6.86;100.00;102174.47;6111573;23;20025;-70
2023/05/27 03:19:04;;;;;;;10.00;4.40;;;;;;;6.49;100.00;102120.97;6092041;23;20658;-69
2023/05/27 03:21:31;;;;;;;8.70;4.80;;;;;;;6.76;100.00;102161.53;6090207;23;20037;-70
2023/05/27 03:23:58;;;;;;;5.18;4.88;;;;;;;6.09;100.00;102047.63;6090206;23;20077;-70
2023/05/27 03:26:25;;;;;;;4.95;4.65;;;;;;;6.86;100.00;102180.53;6119230;23;20024;-69
2023/05/27 03:28:52;;;;;;;16.38;5.15;;;;;;;6.87;100.00;102178.78;6100908;23;20037;-71
2023/05/27 03:31:18;;;;;;;4.70;4.40;;;;;;;6.79;100.00;102160.63;6108967;23;20021;-70
2023/05/27 03:33:45;;;;;;;5.30;4.88;;;;;;;6.90;100.00;102176.16;6104576;23;20025;-69
2023/05/27 03:36:11;;;;;;;5.30;4.80;;;;;;;6.85;100.00;102175.34;6120880;23;20031;-71
2023/05/27 03:38:38;;;;;;;5.63;5.10;;;;;;;5.87;100.00;102013.94;6105232;23;20500;-71
2023/05/27 03:41:04;;;;;;;5.97;5.53;;;;;;;6.41;100.00;102095.91;6112687;23;20032;-71
2023/05/27 03:43:34;;;;;;;7.10;4.28;;;;;;;6.86;100.00;102179.69;6091082;23;20500;-76
2023/05/27 03:46:01;;;;;;;9.93;4.85;;;;;;;6.51;100.00;102116.63;6084899;23;20470;-74
2023/05/27 03:48:27;;;;;;;5.40;4.95;;;;;;;6.91;100.00;102181.34;6125182;23;20025;-75
2023/05/27 03:50:54;;;;;;;8.80;4.78;;;;;;;6.57;100.00;102116.56;6109791;23;20025;-73
2023/05/27 03:53:20;;;;;;;9.50;5.53;;;;;;;6.98;100.00;102179.53;6117553;23;20483;-72
2023/05/27 03:55:47;;;;;;;18.83;4.82;;;;;;;6.74;100.00;102125.91;6088622;23;20043;-72
2023/05/27 03:58:13;;;;;;;8.73;5.07;;;;;;;6.99;100.00;102176.00;6094261;23;20029;-72
2023/05/27 04:00:41;;;;;;;4.97;4.63;;;;;;;7.05;100.00;102160.28;6106728;23;20010;-72
2023/05/27 04:03:08;;;;;;;7.43;4.80;;;;;;;7.22;100.00;102191.38;6094493;23;20026;-73
2023/05/27 04:05:35;;;;;;;6.95;6.05;;;;;;;7.30;100.00;102183.44;6087588;23;20018;-73
2023/05/27 04:08:05;;;;;;;7.15;4.70;;;;;;;7.07;100.00;102103.69;6094477;23;20042;-72
2023/05/27 04:10:32;;;;;;;10.95;5.03;;;;;;;7.89;100.00;102197.28;6113020;23;20044;-73
2023/05/27 04:12:58;;;;;;;16.50;6.57;;;;;;;8.22;100.00;102192.38;6083840;23;20029;-72
2023/05/27 04:15:26;;;;;;;4.80;4.40;;;;;;;8.27;100.00;102153.91;6088302;23;20025;-73
2023/05/27 04:17:52;;;;;;;10.07;4.85;;;;;;;8.77;100.00;102186.06;6117709;23;20041;-72
2023/05/27 04:20:19;;;;;;;14.82;5.40;;;;;;;8.42;100.00;102094.34;6098233;23;20030;-73
2023/05/27 04:22:45;;;;;;;13.30;6.05;;;;;;;9.02;98.25;102143.69;6115160;23;20041;-72
2023/05/27 04:25:14;;;;;;;13.90;5.30;;;;;;;9.43;95.33;102157.56;6066732;23;20028;-72
2023/05/27 04:27:40;;;;;;;17.95;6.82;;;;;;;9.55;92.21;102138.91;6085680;23;20029;-72
2023/05/27 04:30:07;;;;;;;11.18;5.18;;;;;;;10.23;90.23;102154.66;6087237;23;20096;-73
2023/05/27 04:32:37;;;;;;;12.20;4.90;;;;;;;10.77;87.23;102140.91;6112308;23;20033;-73
2023/05/27 04:35:08;;;;;;;13.45;6.30;;;;;;;10.52;84.29;102081.25;6094625;23;20546;-72
2023/05/27 04:37:36;;;;;;;6.43;5.13;;;;;;;10.49;83.45;102080.47;6108805;23;20288;-72
2023/05/27 04:40:08;;;;;;;6.97;6.28;;;;;;;10.66;82.65;102074.72;6086957;23;20474;-72
2023/05/27 04:42:38;;;;;;;10.40;5.18;;;;;;;10.95;81.54;102097.47;6105085;23;20029;-73
2023/05/27 04:45:06;;;;;;;7.32;5.63;;;;;;;11.02;80.61;102088.47;6087348;23;20115;-73
2023/05/27 04:47:33;;;;;;;7.13;6.05;;;;;;;10.38;79.65;101963.56;6108862;23;20557;-72
2023/05/27 04:50:02;;;;;;;5.75;5.35;;;;;;;11.31;78.61;102060.41;6116187;23;20029;-72
2023/05/27 04:52:29;;;;;;;5.22;4.70;;;;;;;11.27;78.02;102019.38;6117261;23;20082;-72
2023/05/27 04:54:55;;;;;;;9.25;5.18;;;;;;;11.92;76.19;102039.88;6117568;23;20087;-73
2023/05/27 04:57:22;;;;;;;7.22;5.88;;;;;;;12.43;75.80;102068.72;6112832;23;20100;-74
2023/05/27 05:02:39;;;;;;;10.70;5.72;;;;;;;13.36;71.93;102008.78;6122306;23;20027;-72
2023/05/27 05:05:11;;;;;;;6.30;5.85;;;;;;;13.70;69.66;101944.00;6115830;23;20041;-72
2023/05/27 05:07:39;;;;;;;8.45;5.97;;;;;;;14.29;69.04;101972.06;6114871;23;20029;-73
2023/05/27 05:10:10;;;;;;;9.02;6.22;;;;;;;13.75;66.31;101839.97;6117198;23;20041;-73
2023/05/27 05:12:37;;;;;;;6.15;5.68;;;;;;;14.20;67.24;101916.19;6119841;23;20025;-73
2023/05/27 05:15:05;;;;;;;12.18;6.78;;;;;;;14.15;66.17;101884.69;6119433;23;20225;-73
2023/05/27 05:17:31;;;;;;;7.05;6.50;;;;;;;13.30;66.72;101812.16;6118307;23;20033;-73
2023/05/27 05:19:58;;;;;;;9.23;6.13;;;;;;;13.32;67.43;101854.28;6120185;23;20041;-73
2023/05/27 05:22:27;;;;;;;7.15;5.75;;;;;;;13.90;67.19;101919.34;6114447;23;20031;-74
2023/05/27 05:24:53;;;;;;;8.55;6.28;;;;;;;13.46;66.27;101798.28;6119972;23;20036;-73
2023/05/27 05:27:19;;;;;;;6.88;5.82;;;;;;;14.36;65.94;101891.59;6089422;23;20025;-74
2023/05/27 05:29:46;;;;;;;8.05;6.30;;;;;;;14.56;65.08;101881.88;6120785;23;20017;-74
2023/05/27 05:32:12;;;;;;;10.75;6.82;;;;;;;13.78;64.14;101678.03;6068883;23;20647;-74
2023/05/27 05:34:40;;;;;;;6.53;5.53;;;;;;;13.30;64.71;101659.25;6117980;23;20103;-73
2023/05/27 05:37:06;;;;;;;7.70;6.15;;;;;;;13.69;65.74;101831.47;6077220;23;20041;-74
2023/05/27 05:39:32;;;;;;;11.88;6.65;;;;;;;14.17;66.42;101896.03;6115989;23;20028;-73
2023/05/27 05:41:59;;;;;;;7.60;6.25;;;;;;;12.78;66.43;101701.19;6118996;23;20047;-71
2023/05/27 05:44:26;;;;;;;11.82;6.50;;;;;;;13.51;67.70;101878.91;6120102;23;20086;-73
2023/05/27 05:46:52;;;;;;;8.38;5.97;;;;;;;14.51;66.56;101944.59;6098262;23;20080;-73
2023/05/27 05:49:19;;;;;;;15.52;6.72;;;;;;;14.20;65.04;101795.59;6124243;23;20081;-74
2023/05/27 05:51:46;;;;;;;15.45;6.28;;;;;;;13.52;65.14;101701.25;6118923;23;20032;-72
2023/05/27 05:54:12;;;;;;;8.68;6.20;;;;;;;13.92;65.08;101757.34;6115054;23;20542;-74
2023/05/27 05:56:39;;;;;;;9.75;6.97;;;;;;;14.28;64.09;101768.81;6090008;23;20021;-72
2023/05/27 05:59:05;;;;;;;7.32;6.43;;;;;;;15.30;63.24;101825.19;6118155;23;20033;-73
2023/05/27 06:01:32;;;;;;;6.40;5.82;;;;;;;14.71;61.80;101648.56;6092016;23;20025;-73
2023/05/27 06:04:03;;;;;;;6.78;6.28;;;;;;;15.04;62.74;101774.53;6095341;23;20072;-73
2023/05/27 06:06:30;;;;;;;6.57;5.80;;;;;;;15.16;62.99;101816.19;6094203;23;20025;-73
2023/05/27 06:08:57;;;;;;;7.65;6.45;;;;;;;14.65;62.73;101712.28;6089576;23;20026;-73
2023/05/27 06:11:23;;;;;;;8.13;6.57;;;;;;;15.19;61.25;101716.47;6120403;23;20021;-73
2023/05/27 06:13:50;;;;;;;8.07;6.82;;;;;;;14.77;61.64;101700.22;6088011;23;20460;-74
2023/05/27 06:16:16;;;;;;;10.52;6.35;;;;;;;14.60;61.60;101687.91;6120887;23;20017;-73
2023/05/27 06:18:45;;;;;;;7.47;6.25;;;;;;;14.47;63.44;101737.00;6088508;23;20098;-73
2023/05/27 06:21:12;;;;;;;10.68;6.32;;;;;;;14.56;63.03;101763.00;6092168;23;20033;-73
2023/05/27 06:23:38;;;;;;;10.93;6.30;;;;;;;14.14;63.28;101704.34;6088989;23;20049;-73
2023/05/27 06:26:05;;;;;;;9.15;6.50;;;;;;;13.06;63.41;101541.81;6116409;23;20033;-73
2023/05/27 06:28:31;;;;;;;6.97;6.25;;;;;;;14.00;63.49;101661.13;6115711;23;20041;-73
2023/05/27 06:30:58;;;;;;;10.13;6.20;;;;;;;14.63;63.32;101782.00;6088081;23;20036;-74
2023/05/27 06:33:24;;;;;;;7.25;6.55;;;;;;;14.50;63.22;101744.78;6077155;23;20025;-72
2023/05/27 06:35:50;;;;;;;9.73;6.15;;;;;;;14.09;64.18;101716.94;6113086;23;20087;-72
2023/05/27 06:38:17;;;;;;;6.65;6.20;;;;;;;13.92;64.56;101724.84;6113125;23;20045;-73
2023/05/27 06:40:43;;;;;;;9.85;6.63;;;;;;;13.53;64.25;101660.78;6092420;23;20020;-73
2023/05/27 06:43:10;;;;;;;13.65;7.85;;;;;;;13.14;65.02;101642.44;6112057;23;20025;-73
2023/05/27 06:45:36;;;;;;;6.47;5.85;;;;;;;14.06;64.83;101756.66;6112496;23;20017;-74
2023/05/27 06:48:11;;;;;;;8.43;6.40;;;;;;;13.82;63.64;101692.78;6120398;23;20032;-74
2023/05/27 06:50:37;;;;;;;6.60;5.90;;;;;;;13.81;64.77;101724.50;6122537;23;20081;-73
2023/05/27 06:53:04;;;;;;;7.18;6.45;;;;;;;13.89;63.90;101711.78;6112509;23;20025;-71
2023/05/27 06:55:30;;;;;;;7.45;6.75;;;;;;;14.19;63.74;101740.22;6089351;23;20043;-71
2023/05/27 06:57:56;;;;;;;17.17;6.15;;;;;;;14.61;63.33;101787.38;6094552;23;20006;-71
2023/05/27 07:00:23;;;;;;;6.97;6.28;;;;;;;14.72;62.78;101721.59;6114465;23;20033;-71
2023/05/27 07:02:49;;;;;;;13.35;5.82;;;;;;;14.86;62.35;101757.03;6060129;23;20086;-71
2023/05/27 07:05:16;;;;;;;6.28;5.80;;;;;;;14.42;61.94;101646.63;6089843;23;20037;-74
2023/05/27 07:07:42;;;;;;;5.95;5.45;;;;;;;14.51;62.31;101683.09;6110622;23;20037;-73
2023/05/27 07:10:09;;;;;;;14.38;7.50;;;;;;;14.64;61.63;101652.47;6082052;23;20573;-74
2023/05/27 07:12:35;;;;;;;9.75;6.05;;;;;;;14.54;62.22;101661.81;6123522;23;20029;-72
2023/05/27 07:15:02;;;;;;;6.60;6.07;;;;;;;15.02;62.39;101712.13;6095614;23;20026;-72
2023/05/27 07:17:28;;;;;;;11.73;6.13;;;;;;;15.77;60.85;101728.25;6018274;23;20542;-72
2023/05/27 07:19:57;;;;;;;8.13;6.90;;;;;;;15.27;59.46;101571.44;6091920;23;20034;-73
2023/05/27 07:22:26;;;;;;;6.80;6.20;;;;;;;15.10;58.98;101544.19;6116294;23;20025;-73
2023/05/27 07:24:53;;;;;;;8.70;6.70;;;;;;;15.31;59.31;101592.31;6114617;23;20016;-73
2023/05/27 07:27:19;;;;;;;6.03;5.53;;;;;;;15.93;59.39;101662.88;6096369;23;20067;-70
2023/05/27 07:29:45;;;;;;;12.30;6.80;;;;;;;15.67;59.13;101593.75;6105776;23;20017;-71
2023/05/27 07:32:12;;;;;;;11.18;7.10;;;;;;;15.73;59.17;101582.84;6100937;23;20100;-70
2023/05/27 07:34:38;;;;;;;8.73;6.47;;;;;;;15.85;59.06;101599.78;6116694;23;20029;-70
2023/05/27 07:37:05;;;;;;;12.48;6.45;;;;;;;16.09;58.03;101599.25;6088742;23;20040;-70
2023/05/27 07:39:31;;;;;;;7.22;6.55;;;;;;;16.42;57.60;101636.06;6120143;23;20058;-70
2023/05/27 07:41:58;;;;;;;12.15;6.53;;;;;;;16.53;57.38;101603.59;6098847;23;20017;-70
2023/05/27 07:44:24;;;;;;;7.05;6.38;;;;;;;16.33;56.96;101547.41;6110672;23;20082;-70
2023/05/27 07:46:51;;;;;;;11.13;6.22;;;;;;;16.56;56.46;101582.22;6099630;23;20006;-70
2023/05/27 07:49:17;;;;;;;7.38;6.13;;;;;;;16.71;55.89;101554.72;6121887;23;20546;-70
2023/05/27 07:51:44;;;;;;;7.65;6.38;;;;;;;16.88;55.77;101556.31;6116446;23;20017;-71
2023/05/27 07:54:10;;;;;;;10.77;6.50;;;;;;;16.75;55.72;101544.78;6109167;23;20051;-70
2023/05/27 07:56:36;;;;;;;8.20;6.35;;;;;;;16.91;55.53;101542.00;6117874;23;20484;-70
2023/05/27 07:59:03;;;;;;;8.20;6.72;;;;;;;17.25;55.22;101558.34;6083363;23;20393;-74
2023/05/27 08:01:32;;;;;;;8.02;6.13;;;;;;;17.15;54.50;101534.22;6119810;23;20009;-73
2023/05/27 08:03:59;;;;;;;9.18;7.07;;;;;;;17.40;54.41;101559.97;6088134;23;20083;-74
2023/05/27 08:06:33;;;;;;;9.32;7.05;;;;;;;16.88;54.21;101460.88;6121607;23;20112;-70
2023/05/27 08:08:59;;;;;;;7.63;6.15;;;;;;;17.46;54.33;101548.94;6090918;23;20033;-74
2023/05/27 08:11:28;;;;;;;7.57;6.53;;;;;;;17.58;54.32;101586.22;6109756;23;21272;-74
2023/05/27 08:13:55;;;;;;;9.50;7.00;;;;;;;17.28;54.55;101552.81;6114157;23;20036;-72
2023/05/27 08:16:22;;;;;;;15.23;7.30;;;;;;;17.46;54.68;101601.16;6119157;23;20483;-74
2023/05/27 08:18:49;;;;;;;6.70;6.10;;;;;;;17.52;53.34;101527.31;6088959;23;20591;-73
2023/05/27 08:21:16;;;;;;;8.93;5.68;;;;;;;16.91;53.23;101412.94;6088399;23;20509;-73
2023/05/27 08:23:42;;;;;;;9.70;6.40;;;;;;;16.91;53.62;101449.22;6112561;23;20660;-73
2023/05/27 08:26:09;;;;;;;8.80;6.45;;;;;;;16.70;54.82;101493.88;6087051;23;20029;-73
2023/05/27 08:28:36;;;;;;;9.00;6.35;;;;;;;17.02;55.16;101560.72;6087027;23;20038;-73
2023/05/27 08:31:04;;;;;;;6.50;5.97;;;;;;;17.07;53.54;101473.75;6084510;23;20010;-73
2023/05/27 08:33:30;;;;;;;8.43;6.65;;;;;;;17.20;53.63;101476.44;6112579;23;20085;-72
2023/05/27 08:35:57;;;;;;;7.40;6.35;;;;;;;17.12;53.58;101460.19;6088130;23;20030;-72
2023/05/27 08:38:23;;;;;;;6.78;6.20;;;;;;;16.74;55.80;101575.75;6114695;23;20026;-72
2023/05/27 08:40:49;;;;;;;10.43;6.43;;;;;;;16.31;53.90;101384.22;6065565;23;20514;-72
2023/05/27 08:43:17;;;;;;;10.35;6.55;;;;;;;17.17;54.13;101511.09;6110109;23;20443;-72
2023/05/27 08:45:44;;;;;;;6.45;5.72;;;;;;;17.35;54.17;101547.00;6093741;23;20014;-73
2023/05/27 08:48:10;;;;;;;10.25;6.38;;;;;;;17.22;54.50;101532.00;6118407;23;20114;-72
2023/05/27 08:50:39;;;;;;;6.35;5.85;;;;;;;17.33;54.94;101594.00;6088773;23;20022;-70
2023/05/27 08:53:07;;;;;;;8.38;6.25;;;;;;;17.67;53.59;101582.94;6087218;23;20037;-72
2023/05/27 08:55:33;;;;;;;9.57;5.90;;;;;;;17.03;54.43;101498.75;6085779;23;20008;-72
2023/05/27 08:58:01;;;;;;;12.68;6.38;;;;;;;17.59;53.07;101527.72;6090240;23;20050;-70
2023/05/27 09:00:28;;;;;;;7.47;6.03;;;;;;;17.92;53.88;101598.06;6119317;23;20087;-70
2023/05/27 09:02:56;;;;;;;7.53;6.82;;;;;;;17.99;53.50;101574.59;6088658;23;20058;-72
2023/05/27 09:05:23;;;;;;;9.25;5.88;;;;;;;17.66;52.85;101514.88;6115966;23;20025;-72
2023/05/27 09:07:49;;;;;;;12.75;6.32;;;;;;;18.39;52.52;101575.31;6087023;23;20042;-72
2023/05/27 09:10:15;;;;;;;6.63;5.97;;;;;;;18.17;52.95;101575.97;6113429;23;20040;-72
2023/05/27 09:12:47;;;;;;;8.32;6.22;;;;;;;17.99;50.88;101421.41;6109110;23;20041;-74
2023/05/27 09:15:13;;;;;;;6.82;6.22;;;;;;;18.24;51.36;101468.31;6056533;23;20069;-73
2023/05/27 09:17:41;;;;;;;9.27;6.22;;;;;;;18.55;51.57;101545.81;6111794;23;20496;-70
2023/05/27 09:20:08;;;;;;;6.28;5.88;;;;;;;18.53;50.99;101507.88;6093987;23;20767;-71
2023/05/27 09:22:35;;;;;;;7.97;6.32;;;;;;;18.54;50.96;101483.84;6115754;23;20029;-74
2023/05/27 09:25:02;;;;;;;7.18;6.22;;;;;;;18.72;50.55;101486.06;6087109;23;20038;-74
2023/05/27 09:27:30;;;;;;;10.38;6.47;;;;;;;18.85;51.19;101549.88;6085442;23;20044;-74
2023/05/27 09:30:05;;;;;;;6.90;5.90;;;;;;;18.40;50.12;101384.78;6060952;23;20043;-72
2023/05/27 09:32:31;;;;;;;9.52;6.65;;;;;;;18.83;49.56;101472.03;6109588;23;20037;-74
2023/05/27 09:34:58;;;;;;;10.73;6.25;;;;;;;18.94;49.21;101456.09;6086897;23;20628;-72
2023/05/27 09:37:33;;;;;;;10.35;6.13;;;;;;;18.68;49.49;101426.13;6111209;23;20021;-73
2023/05/27 09:40:07;;;;;;;8.05;6.03;;;;;;;18.78;49.67;101469.66;6085177;23;20050;-70
2023/05/27 09:42:46;;;;;;;6.43;5.93;;;;;;;18.65;48.73;101367.88;6112509;23;20045;-72
2023/05/27 09:45:17;;;;;;;7.10;6.40;;;;;;;19.03;49.07;101458.06;6086592;23;20009;-73
2023/05/27 09:47:53;;;;;;;6.88;6.20;;;;;;;19.50;49.24;101496.19;6112212;23;20017;-72
2023/05/27 09:50:21;;;;;;;7.03;6.40;;;;;;;19.21;48.51;101470.94;6099483;23;20508;-73
2023/05/27 09:52:49;;;;;;;10.98;6.63;;;;;;;19.40;49.25;101508.47;6085239;23;20062;-72
2023/05/27 09:55:31;;;;;;;7.60;6.28;;;;;;;19.67;48.16;101457.56;6093192;23;20036;-72
2023/05/27 09:57:58;;;;;;;6.97;6.32;;;;;;;19.76;48.37;101493.31;6119286;23;20077;-72
2023/05/27 10:00:27;;;;;;;7.00;6.40;;;;;;;19.83;48.28;101504.34;6060617;23;20076;-73
2023/05/27 10:02:57;;;;;;;7.60;6.07;;;;;;;19.89;47.38;101423.94;6102688;23;20021;-73
2023/05/27 10:05:27;;;;;;;8.40;6.55;;;;;;;19.54;48.29;101438.19;6085989;23;20018;-73
2023/05/27 10:07:53;;;;;;;13.63;6.55;;;;;;;19.59;48.42;101478.63;6117982;23;20028;-73
2023/05/27 10:10:38;;;;;;;13.07;6.50;;;;;;;20.22;46.98;101489.66;6121056;23;20560;-73
2023/05/27 10:13:05;;;;;;;7.65;6.10;;;;;;;19.75;46.95;101389.59;6089550;23;20112;-72
2023/05/27 10:15:33;;;;;;;8.43;6.57;;;;;;;19.59;47.27;101408.56;6119397;23;20025;-72
2023/05/27 10:18:06;;;;;;;15.45;6.80;;;;;;;19.65;48.08;101437.38;6084076;23;20622;-73
2023/05/27 10:20:34;;;;;;;9.30;6.95;;;;;;;20.26;47.93;101532.91;6119793;23;20025;-73
2023/05/27 10:23:25;;;;;;;7.85;6.30;;;;;;;20.46;47.94;101537.47;6091342;23;20566;-72
2023/05/27 10:25:53;;;;;;;8.73;6.57;;;;;;;20.68;48.00;101541.09;6112284;23;20040;-73
2023/05/27 10:28:25;;;;;;;13.27;7.00;;;;;;;20.62;48.23;101553.13;6089224;23;20043;-70
2023/05/27 10:30:52;;;;;;;9.27;6.03;;;;;;;20.86;47.54;101546.75;6114765;23;20017;-72
2023/05/27 10:33:36;;;;;;;11.27;6.63;;;;;;;20.51;47.58;101441.13;6118541;23;20028;-73
2023/05/27 10:36:07;;;;;;;7.00;6.40;;;;;;;19.61;48.15;101393.31;6095485;23;20108;-72
2023/05/27 10:38:34;;;;;;;8.50;6.30;;;;;;;20.39;46.51;101380.81;6121382;23;20022;-72
2023/05/27 10:41:03;;;;;;;16.92;7.40;;;;;;;20.84;45.02;101394.81;6119117;23;20035;-73
2023/05/27 10:43:30;;;;;;;6.68;6.22;;;;;;;20.86;45.69;101430.19;6116731;23;20769;-72
2023/05/27 10:46:09;;;;;;;6.82;6.00;;;;;;;20.96;47.33;101546.84;6117128;23;20082;-72
2023/05/27 10:48:39;;;;;;;6.50;6.10;;;;;;;21.49;46.35;101531.69;6107949;23;20579;-72
2023/05/27 10:51:06;;;;;;;11.90;6.68;;;;;;;20.75;45.78;101384.06;6099702;23;20025;-73
2023/05/27 10:53:36;;;;;;;9.57;6.85;;;;;;;20.70;45.88;101397.78;6121581;23;20021;-72
2023/05/27 10:56:02;;;;;;;6.90;6.30;;;;;;;20.78;47.39;101480.69;6093533;23;20029;-72
2023/05/27 10:58:29;;;;;;;8.00;6.13;;;;;;;20.38;47.03;101411.94;6118673;23;20549;-72
2023/05/27 11:00:58;;;;;;;7.45;6.75;;;;;;;20.76;46.20;101431.13;6070894;23;20100;-72
2023/05/27 11:03:29;;;;;;;7.45;6.45;;;;;;;20.16;46.31;101359.56;6116039;23;20716;-74
2023/05/27 11:06:01;;;;;;;8.73;6.35;;;;;;;20.70;46.22;101389.78;6107307;23;20037;-73
2023/05/27 11:08:28;;;;;;;7.32;6.43;;;;;;;21.62;45.17;101501.25;6117779;23;20096;-73
2023/05/27 11:10:59;;;;;;;7.03;6.53;;;;;;;20.95;44.37;101326.34;6120153;23;20026;-72
2023/05/27 11:13:30;;;;;;;8.40;6.53;;;;;;;21.16;44.64;101380.53;6112141;23;20619;-72
2023/05/27 11:15:57;;;;;;;7.03;6.30;;;;;;;21.74;44.40;101507.38;6121774;23;20044;-73
2023/05/27 11:18:23;;;;;;;7.47;6.70;;;;;;;21.89;43.26;101442.75;6086930;23;20665;-73
2023/05/27 11:20:50;;;;;;;6.70;6.10;;;;;;;22.08;44.31;101490.06;6119326;23;20338;-72
2023/05/27 11:23:16;;;;;;;7.35;6.70;;;;;;;21.75;43.97;101375.47;6116890;23;20449;-72
2023/05/27 11:25:44;;;;;;;10.30;6.80;;;;;;;21.89;44.15;101455.28;6116229;23;20037;-72
2023/05/27 11:28:15;;;;;;;9.32;6.70;;;;;;;21.99;44.46;101457.94;6117899;23;20495;-72
2023/05/27 11:30:42;;;;;;;6.53;6.03;;;;;;;21.81;42.87;101369.56;6086651;23;20030;-72
2023/05/27 11:33:10;;;;;;;7.53;6.80;;;;;;;21.24;42.30;101251.75;6093329;23;20318;-72
2023/05/27 11:35:49;;;;;;;6.65;6.15;;;;;;;22.22;42.15;101430.00;6106788;23;20071;-73